sensor_id;sensor_type;location;lat;lon;timestamp;pressure;altitude;pressure_sealevel;temperature;humidity
62789;BME280;66401;42.016;21.454;2023-11-18T00:01:52;97728.94;;;6.52;100.00
62789;BME280;66401;42.016;21.454;2023-11-18T00:04:17;97745.50;;;6.72;100.00
62789;BME280;66401;42.016;21.454;2023-11-18T00:06:44;97756.31;;;6.76;100.00
62789;BME280;66401;42.016;21.454;2023-11-18T00:09:13;97774.25;;;6.77;100.00
62789;BME280;66401;42.016;21.454;2023-11-18T00:11:39;97782.22;;;6.76;100.00
62789;BME280;66401;42.016;21.454;2023-11-18T00:14:12;97792.00;;;6.95;100.00
62789;BME280;66401;42.016;21.454;2023-11-18T00:16:47;97775.75;;;7.01;100.00
62789;BME280;66401;42.016;21.454;2023-11-18T00:19:13;97790.28;;;7.02;100.00
62789;BME280;66401;42.016;21.454;2023-11-18T00:21:40;97774.28;;;7.13;100.00
62789;BME280;66401;42.016;21.454;2023-11-18T00:24:06;97782.47;;;7.32;100.00
62789;BME280;66401;42.016;21.454;2023-11-18T00:26:33;97772.09;;;7.32;100.00
62789;BME280;66401;42.016;21.454;2023-11-18T00:28:59;97773.25;;;7.44;100.00
62789;BME280;66401;42.016;21.454;2023-11-18T00:31:26;97774.97;;;7.58;100.00
62789;BME280;66401;42.016;21.454;2023-11-18T00:33:51;97763.72;;;7.30;100.00
62789;BME280;66401;42.016;21.454;2023-11-18T00:36:18;97765.97;;;7.54;100.00
62789;BME280;66401;42.016;21.454;2023-11-18T00:38:43;97760.66;;;7.62;100.00
62789;BME280;66401;42.016;21.454;2023-11-18T00:41:09;97775.06;;;7.65;100.00
62789;BME280;66401;42.016;21.454;2023-11-18T00:43:35;97778.94;;;7.75;100.00
62789;BME280;66401;42.016;21.454;2023-11-18T00:46:01;97779.84;;;7.46;100.00
62789;BME280;66401;42.016;21.454;2023-11-18T00:48:28;97791.41;;;7.65;100.00
62789;BME280;66401;42.016;21.454;2023-11-18T00:50:55;97782.69;;;7.52;100.00
62789;BME280;66401;42.016;21.454;2023-11-18T00:53:21;97796.59;;;7.65;100.00
62789;BME280;66401;42.016;21.454;2023-11-18T00:55:47;97803.09;;;7.61;100.00
62789;BME280;66401;42.016;21.454;2023-11-18T00:58:13;97800.50;;;7.61;100.00
62789;BME280;66401;42.016;21.454;2023-11-18T01:00:39;97808.44;;;7.74;100.00
62789;BME280;66401;42.016;21.454;2023-11-18T01:03:04;97808.47;;;7.81;100.00
62789;BME280;66401;42.016;21.454;2023-11-18T01:05:35;97803.97;;;7.68;100.00
62789;BME280;66401;42.016;21.454;2023-11-18T01:08:00;97807.44;;;7.54;100.00
62789;BME280;66401;42.016;21.454;2023-11-18T01:10:26;97798.81;;;7.32;100.00
62789;BME280;66401;42.016;21.454;2023-11-18T01:12:52;97804.06;;;7.39;100.00
62789;BME280;66401;42.016;21.454;2023-11-18T01:15:20;97819.94;;;7.51;100.00
62789;BME280;66401;42.016;21.454;2023-11-18T01:17:45;97813.94;;;7.65;100.00
62789;BME280;66401;42.016;21.454;2023-11-18T01:20:12;97832.97;;;7.57;100.00
62789;BME280;66401;42.016;21.454;2023-11-18T01:22:38;97836.41;;;7.43;100.00
62789;BME280;66401;42.016;21.454;2023-11-18T01:25:06;97829.41;;;7.58;100.00
62789;BME280;66401;42.016;21.454;2023-11-18T01:27:33;97839.75;;;7.58;100.00
62789;BME280;66401;42.016;21.454;2023-11-18T01:29:59;97824.78;;;7.54;100.00
62789;BME280;66401;42.016;21.454;2023-11-18T01:32:25;97826.13;;;7.50;100.00
62789;BME280;66401;42.016;21.454;2023-11-18T01:34:51;97834.09;;;7.69;100.00
62789;BME280;66401;42.016;21.454;2023-11-18T01:37:16;97838.66;;;7.67;100.00
62789;BME280;66401;42.016;21.454;2023-11-18T01:39:42;97853.94;;;7.62;100.00
62789;BME280;66401;42.016;21.454;2023-11-18T01:42:08;97847.66;;;7.71;100.00
62789;BME280;66401;42.016;21.454;2023-11-18T01:44:33;97845.31;;;7.55;100.00
62789;BME280;66401;42.016;21.454;2023-11-18T01:47:02;97838.66;;;7.31;100.00
62789;BME280;66401;42.016;21.454;2023-11-18T01:49:32;97861.59;;;7.49;100.00
62789;BME280;66401;42.016;21.454;2023-11-18T01:51:57;97856.16;;;7.44;100.00
62789;BME280;66401;42.016;21.454;2023-11-18T01:54:26;97839.63;;;7.30;100.00
62789;BME280;66401;42.016;21.454;2023-11-18T01:56:53;97855.28;;;7.22;100.00
62789;BME280;66401;42.016;21.454;2023-11-18T01:59:20;97856.72;;;7.10;100.00
62789;BME280;66401;42.016;21.454;2023-11-18T02:01:53;97850.66;;;6.88;98.94
62789;BME280;66401;42.016;21.454;2023-11-18T02:04:20;97855.75;;;6.96;96.74
62789;BME280;66401;42.016;21.454;2023-11-18T02:06:47;97854.84;;;6.89;97.27
62789;BME280;66401;42.016;21.454;2023-11-18T02:09:17;97856.97;;;6.71;99.08
62789;BME280;66401;42.016;21.454;2023-11-18T02:11:53;97837.22;;;6.55;95.73
62789;BME280;66401;42.016;21.454;2023-11-18T02:14:20;97866.88;;;6.67;97.98
62789;BME280;66401;42.016;21.454;2023-11-18T02:16:55;97869.88;;;6.56;97.31
62789;BME280;66401;42.016;21.454;2023-11-18T02:19:24;97867.47;;;6.54;98.18
62789;BME280;66401;42.016;21.454;2023-11-18T02:21:52;97863.44;;;6.37;96.35
62789;BME280;66401;42.016;21.454;2023-11-18T02:24:27;97859.03;;;6.23;95.60
62789;BME280;66401;42.016;21.454;2023-11-18T02:26:54;97882.81;;;6.41;93.81
62789;BME280;66401;42.016;21.454;2023-11-18T02:29:22;97878.66;;;6.32;96.05
62789;BME280;66401;42.016;21.454;2023-11-18T02:31:50;97872.69;;;6.31;94.60
62789;BME280;66401;42.016;21.454;2023-11-18T02:34:22;97884.22;;;6.44;92.34
62789;BME280;66401;42.016;21.454;2023-11-18T02:36:52;97865.78;;;6.24;93.55
62789;BME280;66401;42.016;21.454;2023-11-18T02:39:26;97890.91;;;6.15;95.80
62789;BME280;66401;42.016;21.454;2023-11-18T02:41:54;97884.06;;;6.22;88.40
62789;BME280;66401;42.016;21.454;2023-11-18T02:44:23;97900.75;;;6.20;93.58
62789;BME280;66401;42.016;21.454;2023-11-18T02:46:50;97894.53;;;6.29;87.32
62789;BME280;66401;42.016;21.454;2023-11-18T02:49:16;97906.19;;;6.25;87.80
62789;BME280;66401;42.016;21.454;2023-11-18T02:51:43;97902.50;;;5.96;89.49
62789;BME280;66401;42.016;21.454;2023-11-18T02:54:10;97906.03;;;6.03;81.66
62789;BME280;66401;42.016;21.454;2023-11-18T02:56:37;97915.09;;;5.99;87.99
62789;BME280;66401;42.016;21.454;2023-11-18T02:59:02;97918.44;;;6.08;86.93
62789;BME280;66401;42.016;21.454;2023-11-18T03:01:31;97908.66;;;5.95;88.45
62789;BME280;66401;42.016;21.454;2023-11-18T03:03:57;97924.13;;;6.03;85.62
62789;BME280;66401;42.016;21.454;2023-11-18T03:06:23;97924.47;;;6.00;86.00
62789;BME280;66401;42.016;21.454;2023-11-18T03:08:49;97913.03;;;5.95;81.91
62789;BME280;66401;42.016;21.454;2023-11-18T03:11:14;97925.72;;;6.05;81.51
62789;BME280;66401;42.016;21.454;2023-11-18T03:13:40;97930.94;;;5.88;80.39
62789;BME280;66401;42.016;21.454;2023-11-18T03:16:09;97936.09;;;5.96;83.04
62789;BME280;66401;42.016;21.454;2023-11-18T03:18:45;97902.94;;;5.69;77.06
62789;BME280;66401;42.016;21.454;2023-11-18T03:21:13;97935.94;;;5.98;78.15
62789;BME280;66401;42.016;21.454;2023-11-18T03:23:39;97936.38;;;6.10;77.58
62789;BME280;66401;42.016;21.454;2023-11-18T03:26:13;97936.88;;;6.05;77.87
62789;BME280;66401;42.016;21.454;2023-11-18T03:28:40;97943.25;;;5.94;73.48
62789;BME280;66401;42.016;21.454;2023-11-18T03:31:06;97950.50;;;5.99;73.30
62789;BME280;66401;42.016;21.454;2023-11-18T03:33:32;97948.81;;;6.06;76.34
62789;BME280;66401;42.016;21.454;2023-11-18T03:35:58;97942.56;;;6.00;77.56
62789;BME280;66401;42.016;21.454;2023-11-18T03:38:26;97963.13;;;6.17;74.87
62789;BME280;66401;42.016;21.454;2023-11-18T03:40:53;97954.28;;;6.11;75.12
62789;BME280;66401;42.016;21.454;2023-11-18T03:43:19;97974.50;;;6.08;75.09
62789;BME280;66401;42.016;21.454;2023-11-18T03:45:45;97942.25;;;5.87;71.08
62789;BME280;66401;42.016;21.454;2023-11-18T03:48:11;97951.75;;;6.03;71.58
62789;BME280;66401;42.016;21.454;2023-11-18T03:50:43;97959.69;;;6.01;73.29
62789;BME280;66401;42.016;21.454;2023-11-18T03:53:10;97955.19;;;5.95;71.79
62789;BME280;66401;42.016;21.454;2023-11-18T03:55:39;97969.59;;;5.82;76.91
62789;BME280;66401;42.016;21.454;2023-11-18T03:58:05;97950.88;;;5.80;71.87
62789;BME280;66401;42.016;21.454;2023-11-18T04:00:33;97956.00;;;5.88;73.37
62789;BME280;66401;42.016;21.454;2023-11-18T04:02:59;97961.34;;;5.86;68.61
62789;BME280;66401;42.016;21.454;2023-11-18T04:05:24;97958.47;;;5.81;72.23
62789;BME280;66401;42.016;21.454;2023-11-18T04:07:50;97971.69;;;5.86;73.17
62789;BME280;66401;42.016;21.454;2023-11-18T04:10:17;97971.34;;;5.89;69.31
62789;BME280;66401;42.016;21.454;2023-11-18T04:12:43;97979.16;;;5.81;66.95
62789;BME280;66401;42.016;21.454;2023-11-18T04:15:12;97962.75;;;5.58;65.79
62789;BME280;66401;42.016;21.454;2023-11-18T04:17:38;97993.38;;;5.69;65.65
62789;BME280;66401;42.016;21.454;2023-11-18T04:20:16;97979.53;;;5.62;62.71
62789;BME280;66401;42.016;21.454;2023-11-18T04:22:43;97964.25;;;5.52;67.99
62789;BME280;66401;42.016;21.454;2023-11-18T04:25:10;97987.31;;;5.54;66.31
62789;BME280;66401;42.016;21.454;2023-11-18T04:27:39;97962.47;;;5.44;63.63
62789;BME280;66401;42.016;21.454;2023-11-18T04:30:04;97969.84;;;5.64;67.64
62789;BME280;66401;42.016;21.454;2023-11-18T04:32:34;97966.47;;;5.55;72.71
62789;BME280;66401;42.016;21.454;2023-11-18T04:35:01;97987.91;;;5.72;66.50
62789;BME280;66401;42.016;21.454;2023-11-18T04:37:33;97962.22;;;5.70;67.38
62789;BME280;66401;42.016;21.454;2023-11-18T04:40:00;97968.22;;;5.71;66.85
62789;BME280;66401;42.016;21.454;2023-11-18T04:42:25;97976.97;;;5.54;65.33
62789;BME280;66401;42.016;21.454;2023-11-18T04:44:51;97942.28;;;5.48;67.25
62789;BME280;66401;42.016;21.454;2023-11-18T04:47:16;97969.81;;;5.72;65.86
62789;BME280;66401;42.016;21.454;2023-11-18T04:49:44;97957.94;;;5.46;66.40
62789;BME280;66401;42.016;21.454;2023-11-18T04:52:09;97980.06;;;5.49;66.86
62789;BME280;66401;42.016;21.454;2023-11-18T04:54:35;97977.59;;;5.64;64.16
62789;BME280;66401;42.016;21.454;2023-11-18T04:57:01;97966.91;;;5.67;62.41
62789;BME280;66401;42.016;21.454;2023-11-18T04:59:27;97970.97;;;5.69;64.23
62789;BME280;66401;42.016;21.454;2023-11-18T05:01:52;97962.09;;;5.64;63.06
62789;BME280;66401;42.016;21.454;2023-11-18T05:04:19;97947.53;;;5.71;62.50
62789;BME280;66401;42.016;21.454;2023-11-18T05:06:44;97968.66;;;5.74;62.45
62789;BME280;66401;42.016;21.454;2023-11-18T05:09:10;97963.06;;;5.63;64.89
62789;BME280;66401;42.016;21.454;2023-11-18T05:11:35;97961.56;;;5.68;63.72
62789;BME280;66401;42.016;21.454;2023-11-18T05:14:01;97958.88;;;5.62;65.30
62789;BME280;66401;42.016;21.454;2023-11-18T05:16:29;97932.28;;;5.45;65.89
62789;BME280;66401;42.016;21.454;2023-11-18T05:18:55;97983.72;;;5.63;66.20
62789;BME280;66401;42.016;21.454;2023-11-18T05:21:20;97982.22;;;5.77;62.86
62789;BME280;66401;42.016;21.454;2023-11-18T05:23:46;97983.03;;;5.69;65.85
62789;BME280;66401;42.016;21.454;2023-11-18T05:26:12;97984.00;;;5.76;63.93
62789;BME280;66401;42.016;21.454;2023-11-18T05:28:37;97969.31;;;5.68;62.90
62789;BME280;66401;42.016;21.454;2023-11-18T05:31:04;97985.94;;;5.74;63.33
62789;BME280;66401;42.016;21.454;2023-11-18T05:33:30;97991.75;;;5.76;63.00
62789;BME280;66401;42.016;21.454;2023-11-18T05:35:57;97992.34;;;5.86;64.43
62789;BME280;66401;42.016;21.454;2023-11-18T05:38:22;97974.28;;;5.78;62.51
62789;BME280;66401;42.016;21.454;2023-11-18T05:40:49;97992.03;;;5.89;61.47
62789;BME280;66401;42.016;21.454;2023-11-18T05:43:28;97983.34;;;5.90;61.48
62789;BME280;66401;42.016;21.454;2023-11-18T05:45:55;97985.22;;;5.96;62.25
62789;BME280;66401;42.016;21.454;2023-11-18T05:48:43;98005.28;;;5.94;62.10
62789;BME280;66401;42.016;21.454;2023-11-18T05:51:09;98008.84;;;5.93;62.76
62789;BME280;66401;42.016;21.454;2023-11-18T05:53:44;97998.16;;;5.96;62.63
62789;BME280;66401;42.016;21.454;2023-11-18T05:56:14;98025.59;;;5.97;61.01
62789;BME280;66401;42.016;21.454;2023-11-18T05:58:42;98034.47;;;6.03;61.75
62789;BME280;66401;42.016;21.454;2023-11-18T06:01:11;98029.78;;;6.07;63.25
62789;BME280;66401;42.016;21.454;2023-11-18T06:03:38;98033.75;;;6.17;60.81
62789;BME280;66401;42.016;21.454;2023-11-18T06:06:06;98008.50;;;5.96;61.50
62789;BME280;66401;42.016;21.454;2023-11-18T06:08:33;98031.31;;;6.24;63.35
62789;BME280;66401;42.016;21.454;2023-11-18T06:10:59;98029.03;;;6.29;61.40
62789;BME280;66401;42.016;21.454;2023-11-18T06:13:25;98039.63;;;6.42;60.58
62789;BME280;66401;42.016;21.454;2023-11-18T06:15:52;98040.25;;;6.44;61.67
62789;BME280;66401;42.016;21.454;2023-11-18T06:18:18;98063.28;;;6.31;62.45
62789;BME280;66401;42.016;21.454;2023-11-18T06:20:44;98072.97;;;6.37;61.08
62789;BME280;66401;42.016;21.454;2023-11-18T06:23:09;98068.59;;;6.38;60.69
62789;BME280;66401;42.016;21.454;2023-11-18T06:25:37;98080.09;;;6.27;60.82
62789;BME280;66401;42.016;21.454;2023-11-18T06:28:03;98089.50;;;6.28;60.90
62789;BME280;66401;42.016;21.454;2023-11-18T06:30:29;98089.91;;;6.09;62.86
62789;BME280;66401;42.016;21.454;2023-11-18T06:32:55;98055.38;;;5.77;61.84
62789;BME280;66401;42.016;21.454;2023-11-18T06:35:21;98097.34;;;6.03;62.01
62789;BME280;66401;42.016;21.454;2023-11-18T06:37:47;98082.81;;;5.94;62.44
62789;BME280;66401;42.016;21.454;2023-11-18T06:40:13;98104.91;;;6.05;62.45
62789;BME280;66401;42.016;21.454;2023-11-18T06:42:45;98116.75;;;5.99;63.10
62789;BME280;66401;42.016;21.454;2023-11-18T06:45:14;98118.03;;;6.03;60.45
62789;BME280;66401;42.016;21.454;2023-11-18T06:47:43;98120.47;;;5.97;60.53
62789;BME280;66401;42.016;21.454;2023-11-18T06:50:10;98129.16;;;6.04;61.42
62789;BME280;66401;42.016;21.454;2023-11-18T06:52:40;98135.81;;;5.98;59.63
62789;BME280;66401;42.016;21.454;2023-11-18T06:55:07;98124.16;;;6.02;61.62
62789;BME280;66401;42.016;21.454;2023-11-18T06:57:34;98131.31;;;5.92;63.55
62789;BME280;66401;42.016;21.454;2023-11-18T06:59:59;98138.38;;;6.07;64.72
62789;BME280;66401;42.016;21.454;2023-11-18T07:02:25;98139.53;;;5.96;64.25
62789;BME280;66401;42.016;21.454;2023-11-18T07:04:50;98131.28;;;5.84;63.97
62789;BME280;66401;42.016;21.454;2023-11-18T07:07:16;98144.22;;;5.84;67.07
62789;BME280;66401;42.016;21.454;2023-11-18T07:09:42;98151.66;;;5.79;66.76
62789;BME280;66401;42.016;21.454;2023-11-18T07:12:09;98133.25;;;5.90;66.92
62789;BME280;66401;42.016;21.454;2023-11-18T07:14:35;98148.13;;;6.36;65.89
62789;BME280;66401;42.016;21.454;2023-11-18T07:17:00;98143.03;;;6.58;64.53
62789;BME280;66401;42.016;21.454;2023-11-18T07:19:26;98139.75;;;6.96;63.29
62789;BME280;66401;42.016;21.454;2023-11-18T07:21:52;98118.47;;;6.85;61.28
62789;BME280;66401;42.016;21.454;2023-11-18T07:24:18;98140.03;;;6.78;61.40
62789;BME280;66401;42.016;21.454;2023-11-18T07:26:45;98140.88;;;6.70;59.95
62789;BME280;66401;42.016;21.454;2023-11-18T07:29:11;98137.75;;;6.44;59.64
62789;BME280;66401;42.016;21.454;2023-11-18T07:31:36;98144.81;;;6.58;60.80
62789;BME280;66401;42.016;21.454;2023-11-18T07:34:05;98151.69;;;6.74;60.03
62789;BME280;66401;42.016;21.454;2023-11-18T07:36:31;98153.34;;;6.67;57.72
62789;BME280;66401;42.016;21.454;2023-11-18T07:38:58;98152.63;;;6.81;59.44
62789;BME280;66401;42.016;21.454;2023-11-18T07:41:27;98147.06;;;6.61;60.24
62789;BME280;66401;42.016;21.454;2023-11-18T07:43:55;98144.66;;;6.59;59.98
62789;BME280;66401;42.016;21.454;2023-11-18T07:46:24;98133.94;;;6.63;59.15
62789;BME280;66401;42.016;21.454;2023-11-18T07:48:50;98155.06;;;6.74;56.85
62789;BME280;66401;42.016;21.454;2023-11-18T07:51:20;98133.94;;;6.63;56.70
62789;BME280;66401;42.016;21.454;2023-11-18T07:53:50;98101.91;;;6.32;59.45
62789;BME280;66401;42.016;21.454;2023-11-18T07:56:16;98144.88;;;6.73;57.02
62789;BME280;66401;42.016;21.454;2023-11-18T07:58:44;98130.66;;;6.77;56.84
62789;BME280;66401;42.016;21.454;2023-11-18T08:01:14;98100.56;;;6.76;54.85
62789;BME280;66401;42.016;21.454;2023-11-18T08:03:42;98094.91;;;6.72;52.73
62789;BME280;66401;42.016;21.454;2023-11-18T08:06:08;98102.34;;;6.98;50.36
62789;BME280;66401;42.016;21.454;2023-11-18T08:08:36;98088.06;;;7.02;51.30
62789;BME280;66401;42.016;21.454;2023-11-18T08:11:05;98099.56;;;7.23;52.26
62789;BME280;66401;42.016;21.454;2023-11-18T08:13:31;98096.66;;;7.26;52.99
62789;BME280;66401;42.016;21.454;2023-11-18T08:15:56;98123.94;;;7.51;52.52
62789;BME280;66401;42.016;21.454;2023-11-18T08:18:25;98110.97;;;7.51;50.29
62789;BME280;66401;42.016;21.454;2023-11-18T08:20:52;98117.75;;;7.37;50.56
62789;BME280;66401;42.016;21.454;2023-11-18T08:23:18;98138.13;;;7.63;51.88
62789;BME280;66401;42.016;21.454;2023-11-18T08:25:44;98133.19;;;7.54;49.39
62789;BME280;66401;42.016;21.454;2023-11-18T08:28:11;98138.13;;;7.63;49.99
62789;BME280;66401;42.016;21.454;2023-11-18T08:30:37;98144.00;;;7.57;50.76
62789;BME280;66401;42.016;21.454;2023-11-18T08:33:04;98135.66;;;7.47;51.00
62789;BME280;66401;42.016;21.454;2023-11-18T08:35:36;98138.00;;;7.57;51.11
62789;BME280;66401;42.016;21.454;2023-11-18T08:38:02;98136.63;;;7.84;48.16
62789;BME280;66401;42.016;21.454;2023-11-18T08:40:30;98120.56;;;11.32;44.19
62789;BME280;66401;42.016;21.454;2023-11-18T08:42:55;98180.09;;;13.87;37.47
62789;BME280;66401;42.016;21.454;2023-11-18T08:45:25;98161.50;;;13.95;36.13
62789;BME280;66401;42.016;21.454;2023-11-18T08:47:59;98167.59;;;12.50;37.50
62789;BME280;66401;42.016;21.454;2023-11-18T08:50:27;98170.84;;;14.28;36.44
62789;BME280;66401;42.016;21.454;2023-11-18T08:52:56;98183.75;;;14.66;34.77
62789;BME280;66401;42.016;21.454;2023-11-18T08:55:29;98145.00;;;14.86;33.99
62789;BME280;66401;42.016;21.454;2023-11-18T08:58:15;98182.56;;;16.29;32.25
62789;BME280;66401;42.016;21.454;2023-11-18T09:00:45;98186.44;;;17.02;30.72
62789;BME280;66401;42.016;21.454;2023-11-18T09:03:12;98183.34;;;17.50;30.47
62789;BME280;66401;42.016;21.454;2023-11-18T09:05:59;98194.78;;;19.10;27.04
62789;BME280;66401;42.016;21.454;2023-11-18T09:08:36;98202.75;;;18.88;28.42
62789;BME280;66401;42.016;21.454;2023-11-18T09:11:08;98195.13;;;17.76;28.99
62789;BME280;66401;42.016;21.454;2023-11-18T09:13:36;98195.56;;;19.06;27.87
62789;BME280;66401;42.016;21.454;2023-11-18T09:16:04;98179.13;;;19.26;25.42
62789;BME280;66401;42.016;21.454;2023-11-18T09:18:34;98188.13;;;20.83;24.66
62789;BME280;66401;42.016;21.454;2023-11-18T09:21:03;98193.66;;;19.87;26.73
62789;BME280;66401;42.016;21.454;2023-11-18T09:23:30;98187.41;;;19.61;25.58
62789;BME280;66401;42.016;21.454;2023-11-18T09:26:03;98197.41;;;20.28;25.16
62789;BME280;66401;42.016;21.454;2023-11-18T09:28:34;98201.03;;;20.60;25.56
62789;BME280;66401;42.016;21.454;2023-11-18T09:31:03;98190.13;;;22.00;23.00
62789;BME280;66401;42.016;21.454;2023-11-18T09:33:31;98199.44;;;21.47;23.45
62789;BME280;66401;42.016;21.454;2023-11-18T09:36:05;98195.03;;;20.84;23.85
62789;BME280;66401;42.016;21.454;2023-11-18T09:38:38;98207.81;;;20.45;24.90
62789;BME280;66401;42.016;21.454;2023-11-18T09:41:08;98205.25;;;19.22;26.75
62789;BME280;66401;42.016;21.454;2023-11-18T09:43:40;98191.97;;;19.17;26.38
62789;BME280;66401;42.016;21.454;2023-11-18T09:46:14;98204.50;;;18.61;25.50
62789;BME280;66401;42.016;21.454;2023-11-18T09:48:47;98201.38;;;17.13;28.68
62789;BME280;66401;42.016;21.454;2023-11-18T09:51:24;98199.09;;;15.29;30.94
62789;BME280;66401;42.016;21.454;2023-11-18T09:53:54;98198.50;;;14.67;31.12
62789;BME280;66401;42.016;21.454;2023-11-18T09:59:21;98178.44;;;16.97;29.61
62789;BME280;66401;42.016;21.454;2023-11-18T10:01:56;98181.06;;;17.08;28.49
62789;BME280;66401;42.016;21.454;2023-11-18T10:04:23;98159.84;;;16.35;28.27
62789;BME280;66401;42.016;21.454;2023-11-18T10:06:53;98156.78;;;15.26;31.31
62789;BME280;66401;42.016;21.454;2023-11-18T10:09:19;98160.44;;;14.03;33.84
62789;BME280;66401;42.016;21.454;2023-11-18T10:11:54;98147.09;;;12.53;36.91
62789;BME280;66401;42.016;21.454;2023-11-18T10:14:26;98140.97;;;12.21;34.90
62789;BME280;66401;42.016;21.454;2023-11-18T10:16:52;98131.91;;;13.20;33.40
62789;BME280;66401;42.016;21.454;2023-11-18T10:19:19;98122.69;;;14.11;33.74
62789;BME280;66401;42.016;21.454;2023-11-18T10:21:46;98149.28;;;14.08;32.59
62789;BME280;66401;42.016;21.454;2023-11-18T10:24:14;98123.44;;;13.50;31.98
62789;BME280;66401;42.016;21.454;2023-11-18T10:26:53;98116.16;;;12.57;32.70
62789;BME280;66401;42.016;21.454;2023-11-18T10:29:23;98102.25;;;12.12;35.29
62789;BME280;66401;42.016;21.454;2023-11-18T10:32:03;98106.50;;;11.13;37.47
62789;BME280;66401;42.016;21.454;2023-11-18T10:34:34;98090.19;;;10.72;38.43
62789;BME280;66401;42.016;21.454;2023-11-18T10:37:01;98092.00;;;10.78;40.34
62789;BME280;66401;42.016;21.454;2023-11-18T10:39:32;98074.94;;;10.62;38.87
62789;BME280;66401;42.016;21.454;2023-11-18T10:42:01;98074.84;;;10.36;39.49
62789;BME280;66401;42.016;21.454;2023-11-18T10:44:26;98099.91;;;10.09;39.97
62789;BME280;66401;42.016;21.454;2023-11-18T10:46:53;98115.47;;;9.95;39.32
62789;BME280;66401;42.016;21.454;2023-11-18T10:49:21;98117.38;;;9.80;41.12
62789;BME280;66401;42.016;21.454;2023-11-18T10:51:47;98103.34;;;9.81;39.57
62789;BME280;66401;42.016;21.454;2023-11-18T10:54:13;98109.88;;;9.98;39.74
62789;BME280;66401;42.016;21.454;2023-11-18T10:57:01;98101.00;;;9.86;38.40
62789;BME280;66401;42.016;21.454;2023-11-18T10:59:33;98062.84;;;10.41;39.50
62789;BME280;66401;42.016;21.454;2023-11-18T11:01:58;98063.41;;;10.30;38.03
62789;BME280;66401;42.016;21.454;2023-11-18T11:04:24;98046.03;;;9.33;39.25
62789;BME280;66401;42.016;21.454;2023-11-18T11:06:50;98034.16;;;9.24;39.47
62789;BME280;66401;42.016;21.454;2023-11-18T11:09:23;98040.06;;;9.11;38.55
62789;BME280;66401;42.016;21.454;2023-11-18T11:12:06;98049.94;;;9.51;39.50
62789;BME280;66401;42.016;21.454;2023-11-18T11:14:48;98048.56;;;9.55;40.71
62789;BME280;66401;42.016;21.454;2023-11-18T11:17:17;98088.47;;;10.03;38.96
62789;BME280;66401;42.016;21.454;2023-11-18T11:20:04;98070.38;;;10.23;36.99
62789;BME280;66401;42.016;21.454;2023-11-18T11:25:52;98081.34;;;14.68;33.13
62789;BME280;66401;42.016;21.454;2023-11-18T11:28:23;98062.59;;;15.83;30.26
62789;BME280;66401;42.016;21.454;2023-11-18T11:31:08;98081.06;;;14.57;33.72
62789;BME280;66401;42.016;21.454;2023-11-18T11:33:43;98062.44;;;15.89;29.29
62789;BME280;66401;42.016;21.454;2023-11-18T11:36:13;98088.72;;;16.53;28.48
62789;BME280;66401;42.016;21.454;2023-11-18T11:38:43;98103.53;;;15.49;32.09
62789;BME280;66401;42.016;21.454;2023-11-18T11:41:13;98077.09;;;15.73;28.63
62789;BME280;66401;42.016;21.454;2023-11-18T11:43:48;98085.75;;;17.23;28.17
62789;BME280;66401;42.016;21.454;2023-11-18T11:46:15;98084.34;;;18.48;26.22
62789;BME280;66401;42.016;21.454;2023-11-18T11:48:45;98106.19;;;19.20;24.38
62789;BME280;66401;42.016;21.454;2023-11-18T11:51:34;98105.66;;;17.48;26.18
62789;BME280;66401;42.016;21.454;2023-11-18T11:54:12;98102.25;;;16.73;27.63
62789;BME280;66401;42.016;21.454;2023-11-18T11:56:46;98098.47;;;16.41;26.97
62789;BME280;66401;42.016;21.454;2023-11-18T11:59:15;98096.06;;;16.68;28.21
62789;BME280;66401;42.016;21.454;2023-11-18T12:01:41;98106.59;;;17.41;26.87
62789;BME280;66401;42.016;21.454;2023-11-18T12:04:14;98098.41;;;19.03;25.14
62789;BME280;66401;42.016;21.454;2023-11-18T12:06:52;98114.53;;;20.13;24.40
62789;BME280;66401;42.016;21.454;2023-11-18T12:09:21;98111.81;;;20.55;24.62
62789;BME280;66401;42.016;21.454;2023-11-18T12:11:47;98099.41;;;20.03;23.30
62789;BME280;66401;42.016;21.454;2023-11-18T12:14:16;98092.84;;;20.11;23.51
62789;BME280;66401;42.016;21.454;2023-11-18T12:17:03;98115.56;;;20.59;23.88
62789;BME280;66401;42.016;21.454;2023-11-18T12:19:35;98118.34;;;21.51;22.09
62789;BME280;66401;42.016;21.454;2023-11-18T12:22:12;98114.59;;;21.01;22.13
62789;BME280;66401;42.016;21.454;2023-11-18T12:35:22;98128.22;;;19.30;25.02
62789;BME280;66401;42.016;21.454;2023-11-18T12:38:16;98124.59;;;20.78;22.87
62789;BME280;66401;42.016;21.454;2023-11-18T12:40:57;98137.31;;;20.81;23.71
62789;BME280;66401;42.016;21.454;2023-11-18T12:43:49;98136.44;;;19.66;24.21
62789;BME280;66401;42.016;21.454;2023-11-18T12:49:03;98106.50;;;18.96;24.07
62789;BME280;66401;42.016;21.454;2023-11-18T12:51:32;98117.41;;;19.37;24.49
62789;BME280;66401;42.016;21.454;2023-11-18T12:54:01;98108.38;;;20.49;23.25
62789;BME280;66401;42.016;21.454;2023-11-18T12:56:29;98123.91;;;19.88;23.12
62789;BME280;66401;42.016;21.454;2023-11-18T12:58:55;98085.94;;;20.72;23.04
62789;BME280;66401;42.016;21.454;2023-11-18T13:01:22;98127.53;;;20.19;24.04
62789;BME280;66401;42.016;21.454;2023-11-18T13:03:47;98104.81;;;19.44;24.13
62789;BME280;66401;42.016;21.454;2023-11-18T13:06:13;98122.44;;;19.06;23.99
62789;BME280;66401;42.016;21.454;2023-11-18T13:08:40;98131.22;;;18.63;24.29
62789;BME280;66401;42.016;21.454;2023-11-18T13:11:06;98128.25;;;19.35;24.16
62789;BME280;66401;42.016;21.454;2023-11-18T13:13:40;98129.97;;;17.38;25.60
62789;BME280;66401;42.016;21.454;2023-11-18T13:16:07;98116.00;;;17.88;25.65
62789;BME280;66401;42.016;21.454;2023-11-18T13:18:46;98127.06;;;18.67;24.02
62789;BME280;66401;42.016;21.454;2023-11-18T13:21:19;98133.69;;;18.97;23.15
62789;BME280;66401;42.016;21.454;2023-11-18T13:23:46;98142.97;;;18.55;23.91